Omiya, Japan
Current Conditions -  °F | °C
As of 2:58 AM on Friday 31 Oct 2014 (Local Time) from RJTY Reporting Station
Broken Clouds Broken Clouds  
Wind Chill: 56°   Ceiling: 15000
Heat Index: 56°   Visibility: 10mi
Dew Point: 52°   Wind: 1mph
Humidity: 87%   Direction: 350°N
Pressure: 30.32"   Gusts: NA
Location:  35.9°N, 139.63°E
Report Text: RJTY 301758Z AUTO 35001KT 10SM SCT060 BKN150 13/11 A3032 RMK AO2 SLP269 T01340113 10149 20131 58008
Loading
Personal Weather Stations






























Interactive Weather Map
Tropical Storm Tracking
New forecast layout! Learn more

10-Day Weather Forecast

Advertisements
Track Severe Weather on mobile